Time;durP1;ratioP1;P1;durP2;ratioP2;P2;SDS_P1;SDS_P2;PMS_P1;PMS_P2;Temp;Humidity;BMP_temperature;BMP_pressure;BME280_temperature;BME280_humidity;BME280_pressure;Samples;Min_cycle;Max_cycle;Signal;HPM_P1;HPM_P2
2024/04/07 00:01:35;;;;;;;2.80;1.40;;;17.50;99.80;;;;;;4949514;28;20395;-65
2024/04/07 00:04:02;;;;;;;1.98;1.60;;;17.50;99.90;;;;;;4949215;28;20035;-65
2024/04/07 00:06:29;;;;;;;2.38;1.92;;;17.50;99.90;;;;;;4948629;28;20047;-65
2024/04/07 00:08:55;;;;;;;3.25;2.00;;;17.40;99.60;;;;;;4948491;28;20031;-65
2024/04/07 00:11:20;;;;;;;2.65;1.90;;;17.40;99.60;;;;;;4948572;28;20027;-66
2024/04/07 00:13:46;;;;;;;4.55;1.70;;;17.50;99.80;;;;;;4949737;28;20028;-65
2024/04/07 00:16:12;;;;;;;3.00;1.65;;;17.40;99.70;;;;;;4948888;28;20039;-65
2024/04/07 00:18:38;;;;;;;2.03;1.70;;;17.40;99.70;;;;;;4950203;28;20035;-65
2024/04/07 00:21:05;;;;;;;3.45;2.03;;;17.40;99.50;;;;;;4950224;28;20927;-65
2024/04/07 00:23:32;;;;;;;1.80;1.60;;;17.40;99.30;;;;;;4950498;28;20507;-65
2024/04/07 00:25:58;;;;;;;2.33;1.50;;;17.40;99.00;;;;;;4946530;28;20044;-65
2024/04/07 00:28:24;;;;;;;4.75;1.63;;;17.40;98.80;;;;;;4948673;28;20063;-65
2024/04/07 00:30:50;;;;;;;2.40;1.77;;;17.40;98.70;;;;;;4947769;28;20138;-65
2024/04/07 00:33:16;;;;;;;2.35;1.65;;;17.40;98.70;;;;;;4948485;28;20031;-65
2024/04/07 00:36:03;;;;;;;3.05;1.67;;;17.40;98.60;;;;;;4948217;28;20027;-65
2024/04/07 00:38:30;;;;;;;3.15;1.55;;;17.40;98.60;;;;;;4947539;28;20042;-64
2024/04/07 00:40:57;;;;;;;2.95;1.83;;;17.40;98.60;;;;;;4948020;28;20043;-64
2024/04/07 00:43:28;;;;;;;1.77;1.58;;;17.40;98.40;;;;;;4949910;28;20023;-65
2024/04/07 00:45:55;;;;;;;2.70;1.77;;;17.40;98.40;;;;;;4947921;28;20035;-65
2024/04/07 00:48:21;;;;;;;3.10;1.80;;;17.40;98.30;;;;;;4949669;28;20031;-65
2024/04/07 00:50:49;;;;;;;2.75;1.80;;;17.40;98.20;;;;;;4948753;28;20039;-65
2024/04/07 00:53:16;;;;;;;3.30;1.67;;;17.40;98.20;;;;;;4949182;28;20094;-65
2024/04/07 00:55:43;;;;;;;2.63;1.90;;;17.40;98.10;;;;;;4948693;28;20030;-65
2024/04/07 00:58:13;;;;;;;3.05;1.67;;;17.40;98.10;;;;;;4947123;28;20566;-65
2024/04/07 01:00:42;;;;;;;2.95;1.75;;;17.40;98.10;;;;;;4949728;28;20039;-65
2024/04/07 01:03:09;;;;;;;3.45;1.73;;;17.40;98.00;;;;;;4948824;28;20434;-65
2024/04/07 01:05:45;;;;;;;2.08;1.60;;;17.30;98.00;;;;;;4949941;28;20019;-65
2024/04/07 01:08:12;;;;;;;;;;;17.40;97.90;;;;;;4948906;28;20031;-65
2024/04/07 01:10:38;;;;;;;3.03;2.65;;;17.30;97.80;;;;;;4949690;28;20350;-65
2024/04/07 01:13:06;;;;;;;3.67;1.80;;;17.40;97.70;;;;;;4948625;28;20062;-65
2024/04/07 01:15:34;;;;;;;6.07;1.95;;;17.40;97.60;;;;;;4948263;28;20042;-65
2024/04/07 01:18:00;;;;;;;4.40;1.92;;;17.40;97.60;;;;;;4947736;28;20050;-65
2024/04/07 01:20:27;;;;;;;2.95;2.00;;;17.40;97.60;;;;;;4948668;28;20144;-65
2024/04/07 01:22:53;;;;;;;2.78;2.00;;;17.40;97.50;;;;;;4947930;28;20035;-65
2024/04/07 01:25:20;;;;;;;3.00;2.00;;;17.40;97.40;;;;;;4949442;28;20753;-65
2024/04/07 01:27:52;;;;;;;3.50;2.10;;;17.40;97.40;;;;;;4948939;28;20046;-65
2024/04/07 01:30:17;;;;;;;2.65;1.88;;;17.40;97.40;;;;;;4946715;28;20145;-65
2024/04/07 01:32:44;;;;;;;4.85;2.20;;;17.40;97.30;;;;;;4947443;28;20145;-65
2024/04/07 01:35:10;;;;;;;4.00;2.28;;;17.40;97.30;;;;;;4947807;28;20046;-65
2024/04/07 01:37:36;;;;;;;3.45;1.95;;;17.40;97.20;;;;;;4948343;28;20035;-65
2024/04/07 01:40:03;;;;;;;3.60;1.85;;;17.40;97.20;;;;;;4947898;28;20035;-65
2024/04/07 01:42:30;;;;;;;3.35;1.90;;;17.40;97.20;;;;;;4947948;28;20045;-65
2024/04/07 01:44:55;;;;;;;2.45;1.80;;;17.40;97.20;;;;;;4948814;28;20035;-65
2024/04/07 01:47:21;;;;;;;2.05;1.85;;;17.40;97.20;;;;;;4947295;28;20037;-65
2024/04/07 01:49:50;;;;;;;2.70;1.65;;;17.40;97.00;;;;;;4949334;28;20062;-65
2024/04/07 01:52:17;;;;;;;2.08;1.73;;;17.40;97.00;;;;;;4946714;28;20041;-65
2024/04/07 01:54:43;;;;;;;5.38;2.65;;;17.40;97.00;;;;;;4947059;28;20097;-66
2024/04/07 01:57:09;;;;;;;3.67;2.05;;;17.40;97.30;;;;;;4947147;28;20047;-65
2024/04/07 01:59:35;;;;;;;2.45;2.08;;;17.40;97.00;;;;;;4947825;28;20061;-65
2024/04/07 02:02:02;;;;;;;3.10;2.08;;;17.40;97.00;;;;;;4947802;28;20031;-67
2024/04/07 02:04:28;;;;;;;2.15;1.70;;;17.30;97.00;;;;;;4947383;28;20035;-67
2024/04/07 02:06:54;;;;;;;3.10;1.90;;;17.30;96.90;;;;;;4947407;28;20514;-67
2024/04/07 02:09:20;;;;;;;3.30;1.77;;;17.30;97.00;;;;;;4948021;28;20046;-67
2024/04/07 02:11:47;;;;;;;3.92;2.00;;;17.30;97.00;;;;;;4946938;28;20129;-67
2024/04/07 02:14:13;;;;;;;3.47;1.92;;;17.30;97.20;;;;;;4947046;28;20399;-67
2024/04/07 02:16:39;;;;;;;2.75;1.73;;;17.30;96.90;;;;;;4946630;28;20035;-67
2024/04/07 02:19:06;;;;;;;3.13;1.73;;;17.30;96.80;;;;;;4945984;28;20041;-67
2024/04/07 02:21:32;;;;;;;3.40;1.75;;;17.30;97.00;;;;;;4947409;28;20023;-67
2024/04/07 02:23:58;;;;;;;3.65;1.77;;;17.20;96.80;;;;;;4946566;28;20046;-67
2024/04/07 02:26:24;;;;;;;2.97;1.70;;;17.10;96.70;;;;;;4947692;28;20027;-67
2024/04/07 02:28:50;;;;;;;3.53;1.80;;;17.20;96.90;;;;;;4947347;28;20035;-67
2024/04/07 02:31:16;;;;;;;1.95;1.65;;;17.20;96.90;;;;;;4947793;28;20031;-67
2024/04/07 02:33:45;;;;;;;3.63;2.20;;;17.20;97.00;;;;;;4945833;28;20082;-67
2024/04/07 02:36:12;;;;;;;2.85;1.80;;;17.20;96.90;;;;;;4947760;28;20138;-67
2024/04/07 02:38:38;;;;;;;3.50;1.70;;;17.20;96.80;;;;;;4945154;28;20033;-67
2024/04/07 02:41:04;;;;;;;3.20;1.90;;;17.20;96.80;;;;;;4946668;28;20035;-67
2024/04/07 02:43:29;;;;;;;2.55;1.80;;;17.20;97.00;;;;;;4946449;28;20082;-67
2024/04/07 02:48:42;;;;;;;3.65;1.80;;;17.10;96.70;;;;;;4945523;28;20035;-68
2024/04/07 02:51:08;;;;;;;3.22;1.90;;;17.10;96.70;;;;;;4945983;28;20112;-67
2024/04/07 02:53:33;;;;;;;4.28;1.80;;;17.10;96.60;;;;;;4948272;28;20031;-67
2024/04/07 02:55:59;;;;;;;4.90;2.40;;;17.10;96.40;;;;;;4945305;28;20081;-67
2024/04/07 02:58:25;;;;;;;2.03;1.75;;;17.20;96.50;;;;;;4947134;28;20058;-67
2024/04/07 03:00:51;;;;;;;3.72;1.80;;;17.20;96.20;;;;;;4945986;28;20095;-67
2024/04/07 03:03:18;;;;;;;4.20;1.77;;;17.20;96.30;;;;;;4945542;28;20054;-67
2024/04/07 03:05:43;;;;;;;3.38;2.20;;;17.20;96.30;;;;;;4947559;28;20038;-67
2024/04/07 03:08:10;;;;;;;3.63;2.28;;;17.30;95.90;;;;;;4945965;28;20454;-67
2024/04/07 03:10:36;;;;;;;4.35;1.90;;;17.30;96.40;;;;;;4944424;28;20031;-67
2024/04/07 03:13:02;;;;;;;3.78;1.95;;;17.30;96.30;;;;;;4947219;28;20039;-67
2024/04/07 03:15:30;;;;;;;2.40;1.67;;;17.20;96.10;;;;;;4946299;28;20050;-67
2024/04/07 03:17:56;;;;;;;3.63;1.92;;;17.20;96.10;;;;;;4944738;28;20124;-67
2024/04/07 03:20:22;;;;;;;2.10;1.58;;;17.20;96.20;;;;;;4945444;28;20042;-67
2024/04/07 03:22:48;;;;;;;4.80;2.08;;;17.30;95.50;;;;;;4944797;28;20038;-67
2024/04/07 03:25:14;;;;;;;4.03;1.95;;;17.30;95.70;;;;;;4946868;28;20934;-67
2024/04/07 03:27:39;;;;;;;2.92;1.65;;;17.30;95.70;;;;;;4945862;28;20036;-67
2024/04/07 03:30:06;;;;;;;6.13;2.00;;;17.30;95.80;;;;;;4946357;28;20101;-67
2024/04/07 03:32:31;;;;;;;2.92;1.85;;;17.30;95.70;;;;;;4948184;28;20038;-67
2024/04/07 03:34:57;;;;;;;2.53;1.90;;;17.30;95.40;;;;;;4945993;28;20793;-67
2024/04/07 03:37:23;;;;;;;2.17;1.90;;;17.30;95.50;;;;;;4946959;28;20034;-67
2024/04/07 03:39:51;;;;;;;2.47;1.50;;;17.30;95.30;;;;;;4946007;28;20028;-67
2024/04/07 03:42:16;;;;;;;1.90;1.58;;;17.20;95.50;;;;;;4946595;28;20069;-67
2024/04/07 03:44:42;;;;;;;4.05;1.88;;;17.10;95.40;;;;;;4945571;28;20316;-67
2024/04/07 03:47:09;;;;;;;2.95;1.75;;;17.20;95.50;;;;;;4946118;28;21541;-67
2024/04/07 03:49:35;;;;;;;4.85;1.90;;;17.10;95.50;;;;;;4945430;28;20035;-67
2024/04/07 03:52:01;;;;;;;2.40;1.75;;;17.10;95.40;;;;;;4946957;28;20035;-67
2024/04/07 03:54:26;;;;;;;2.50;1.75;;;17.00;95.60;;;;;;4946273;28;20031;-67
2024/04/07 03:56:52;;;;;;;3.35;1.90;;;16.90;95.60;;;;;;4946248;28;20050;-67
2024/04/07 03:59:18;;;;;;;5.90;1.75;;;16.90;96.10;;;;;;4945642;28;20035;-67
2024/04/07 04:01:44;;;;;;;2.92;2.03;;;16.80;95.60;;;;;;4946539;28;20118;-67
2024/04/07 04:04:10;;;;;;;3.30;1.80;;;16.80;95.90;;;;;;4948086;28;20084;-67
2024/04/07 04:06:36;;;;;;;3.08;1.77;;;16.80;95.70;;;;;;4948326;28;20035;-67
2024/04/07 04:09:04;;;;;;;4.10;1.98;;;16.80;95.80;;;;;;4951049;28;20042;-67
2024/04/07 04:11:29;;;;;;;4.60;1.73;;;16.80;95.80;;;;;;4947617;28;20043;-67
2024/04/07 04:13:55;;;;;;;2.72;1.75;;;16.70;95.60;;;;;;4950273;28;20101;-67
2024/04/07 04:16:21;;;;;;;2.17;1.80;;;16.70;95.70;;;;;;4948991;28;20113;-67
2024/04/07 04:18:47;;;;;;;1.88;1.58;;;16.60;95.90;;;;;;4948634;28;20527;-67
2024/04/07 04:21:13;;;;;;;3.35;1.67;;;16.70;95.30;;;;;;4949384;28;21035;-67
2024/04/07 04:23:39;;;;;;;2.40;2.00;;;16.70;95.30;;;;;;4949414;28;20114;-67
2024/04/07 04:26:05;;;;;;;2.45;1.80;;;16.70;95.20;;;;;;4949470;28;20534;-67
2024/04/07 04:28:32;;;;;;;3.75;1.65;;;16.70;95.20;;;;;;4948263;28;20034;-67
2024/04/07 04:31:06;;;;;;;2.92;1.88;;;16.70;95.20;;;;;;4947962;28;20661;-67
2024/04/07 04:33:32;;;;;;;1.70;1.33;;;16.70;95.00;;;;;;4948129;28;20697;-67
2024/04/07 04:35:58;;;;;;;2.15;1.60;;;16.70;94.80;;;;;;4949410;28;20462;-68
2024/04/07 04:38:24;;;;;;;2.47;1.50;;;16.80;94.70;;;;;;4948467;28;20026;-67
2024/04/07 04:40:57;;;;;;;2.72;1.63;;;16.80;94.60;;;;;;4947455;28;20057;-67
2024/04/07 04:43:24;;;;;;;2.53;1.27;;;16.80;94.80;;;;;;4949544;28;20034;-68
2024/04/07 04:46:10;;;;;;;1.95;1.40;;;16.80;95.00;;;;;;4947712;28;20090;-68
2024/04/07 04:48:37;;;;;;;1.65;1.40;;;16.80;94.80;;;;;;4947849;28;20382;-68
2024/04/07 04:51:03;;;;;;;4.20;1.80;;;16.80;94.50;;;;;;4947877;28;20042;-67
2024/04/07 04:53:30;;;;;;;2.78;1.38;;;16.80;94.30;;;;;;4950593;28;20121;-67
2024/04/07 04:56:01;;;;;;;2.35;1.50;;;16.90;94.00;;;;;;4948519;28;20049;-67
2024/04/07 04:58:30;;;;;;;3.90;1.60;;;16.90;94.00;;;;;;4949611;28;20050;-67
2024/04/07 05:00:57;;;;;;;5.03;1.45;;;17.00;93.70;;;;;;4947836;28;20038;-67
2024/04/07 05:03:25;;;;;;;2.38;1.95;;;17.00;93.40;;;;;;4948692;28;20022;-68
2024/04/07 05:05:51;;;;;;;2.58;1.60;;;17.10;93.20;;;;;;4947005;28;20039;-67
2024/04/07 05:08:17;;;;;;;2.30;1.40;;;17.20;93.10;;;;;;4949095;28;20035;-67
2024/04/07 05:10:43;;;;;;;3.38;1.42;;;17.20;93.00;;;;;;4948645;28;20035;-67
2024/04/07 05:13:09;;;;;;;1.30;1.20;;;17.30;92.50;;;;;;4949414;28;20035;-67
2024/04/07 05:15:35;;;;;;;2.22;1.50;;;17.40;92.50;;;;;;4947633;28;20097;-67
2024/04/07 05:18:01;;;;;;;2.13;1.60;;;17.40;92.50;;;;;;4948207;28;20027;-67
2024/04/07 05:20:28;;;;;;;3.83;1.50;;;17.50;92.30;;;;;;4950341;28;20667;-67
2024/04/07 05:22:54;;;;;;;2.58;1.40;;;17.50;92.10;;;;;;4948498;28;20082;-67
2024/04/07 05:25:19;;;;;;;5.68;1.48;;;17.50;92.20;;;;;;4950263;28;20067;-67
2024/04/07 05:27:45;;;;;;;2.78;1.70;;;17.60;92.40;;;;;;4946167;28;20062;-67
2024/04/07 05:30:11;;;;;;;1.30;1.20;;;17.60;92.10;;;;;;4947938;28;20039;-67
2024/04/07 05:32:37;;;;;;;2.65;1.45;;;17.70;92.00;;;;;;4946396;28;20556;-67
2024/04/07 05:35:06;;;;;;;2.92;1.30;;;17.70;91.90;;;;;;4947160;28;20039;-67
2024/04/07 05:37:32;;;;;;;1.65;1.30;;;17.80;91.60;;;;;;4948178;28;20031;-67
2024/04/07 05:39:58;;;;;;;2.17;1.55;;;17.90;92.20;;;;;;4948581;28;20396;-67
2024/04/07 05:42:26;;;;;;;1.23;1.10;;;18.00;92.50;;;;;;4946313;28;20055;-67
2024/04/07 05:44:53;;;;;;;1.98;1.30;;;18.00;93.60;;;;;;4948226;28;20062;-67
2024/04/07 05:47:19;;;;;;;2.50;1.20;;;18.10;92.40;;;;;;4947221;28;20027;-67
2024/04/07 05:49:45;;;;;;;2.75;1.40;;;18.10;93.10;;;;;;4947829;28;20057;-68
2024/04/07 05:52:10;;;;;;;2.42;1.52;;;18.10;93.20;;;;;;4949432;28;20046;-67
2024/04/07 05:54:36;;;;;;;7.22;1.55;;;18.20;92.90;;;;;;4948606;28;20042;-67
2024/04/07 05:57:02;;;;;;;1.75;1.65;;;18.20;93.00;;;;;;4948885;28;20778;-67
2024/04/07 05:59:28;;;;;;;3.17;1.23;;;18.30;92.30;;;;;;4948916;28;20847;-67
2024/04/07 06:01:54;;;;;;;1.48;1.17;;;18.40;92.00;;;;;;4948976;28;20036;-67
2024/04/07 06:04:20;;;;;;;2.92;1.38;;;18.40;92.90;;;;;;4948721;28;20397;-67
2024/04/07 06:06:47;;;;;;;2.42;1.30;;;18.50;92.50;;;;;;4948562;28;20036;-67
2024/04/07 06:09:14;;;;;;;3.20;1.40;;;18.70;92.20;;;;;;4948621;28;20075;-67
2024/04/07 06:11:40;;;;;;;3.65;1.65;;;18.70;91.70;;;;;;4946894;28;20121;-67
2024/04/07 06:14:05;;;;;;;3.00;1.35;;;19.00;92.50;;;;;;4948967;28;20553;-67
2024/04/07 06:16:31;;;;;;;4.05;1.10;;;19.40;91.20;;;;;;4947189;28;20034;-67
2024/04/07 06:18:57;;;;;;;3.35;1.60;;;19.80;91.60;;;;;;4947828;28;20042;-67
2024/04/07 06:21:23;;;;;;;2.08;1.48;;;20.30;91.70;;;;;;4947367;28;20106;-68
2024/04/07 06:23:48;;;;;;;2.15;1.27;;;20.90;90.40;;;;;;4946072;28;20094;-67
2024/04/07 06:26:15;;;;;;;1.60;1.40;;;21.30;88.90;;;;;;4947063;28;20035;-67
2024/04/07 06:28:41;;;;;;;2.28;1.48;;;21.50;87.70;;;;;;4946730;28;20031;-67
2024/04/07 06:31:07;;;;;;;5.68;1.70;;;21.50;87.20;;;;;;4946133;28;20712;-68
2024/04/07 06:33:32;;;;;;;1.80;1.58;;;21.30;87.30;;;;;;4947089;28;20043;-68
2024/04/07 06:35:58;;;;;;;2.58;1.50;;;21.10;85.60;;;;;;4946603;28;20042;-67
2024/04/07 06:38:25;;;;;;;1.70;1.48;;;20.90;84.80;;;;;;4946907;28;20065;-67
2024/04/07 06:40:52;;;;;;;1.63;1.00;;;20.70;87.20;;;;;;4947869;28;20062;-67
2024/04/07 06:43:17;;;;;;;3.13;1.10;;;20.60;86.10;;;;;;4946957;28;20037;-68
2024/04/07 06:45:43;;;;;;;4.30;0.90;;;20.70;85.80;;;;;;4947353;28;20100;-67
2024/04/07 06:48:09;;;;;;;2.63;0.93;;;20.70;85.40;;;;;;4947773;28;20505;-67
2024/04/07 06:50:35;;;;;;;3.60;1.10;;;20.70;85.40;;;;;;4947811;28;20059;-67
2024/04/07 06:53:03;;;;;;;3.22;1.38;;;20.60;86.20;;;;;;4946788;28;20113;-67
2024/04/07 06:55:29;;;;;;;2.17;1.40;;;20.50;85.50;;;;;;4947012;28;20055;-67
2024/04/07 06:57:56;;;;;;;3.38;1.00;;;20.40;86.40;;;;;;4946965;28;20058;-67
2024/04/07 07:00:22;;;;;;;1.40;0.85;;;20.40;86.70;;;;;;4947624;28;20039;-67
2024/04/07 07:02:48;;;;;;;2.65;1.10;;;20.40;86.40;;;;;;4946787;28;20070;-67
2024/04/07 07:05:14;;;;;;;3.00;1.17;;;20.50;86.50;;;;;;4947114;28;20031;-67
2024/04/07 07:07:39;;;;;;;2.13;1.10;;;20.60;85.80;;;;;;4946650;28;20039;-67
2024/04/07 07:10:06;;;;;;;1.85;1.15;;;20.80;85.00;;;;;;4947051;28;20035;-67
2024/04/07 07:12:32;;;;;;;1.42;1.10;;;20.90;84.70;;;;;;4944103;28;20038;-66
2024/04/07 07:14:58;;;;;;;2.55;1.15;;;21.00;86.30;;;;;;4947180;28;20154;-67
2024/04/07 07:17:24;;;;;;;1.88;1.20;;;21.00;85.10;;;;;;4947060;28;20093;-67
2024/04/07 07:19:50;;;;;;;2.75;1.20;;;21.10;84.80;;;;;;4947207;28;20042;-67
2024/04/07 07:22:15;;;;;;;2.38;1.10;;;21.20;85.40;;;;;;4947287;28;20054;-67
2024/04/07 07:24:41;;;;;;;2.45;1.90;;;21.20;84.00;;;;;;4947470;28;20042;-67
2024/04/07 07:27:07;;;;;;;1.77;1.05;;;21.10;84.60;;;;;;4943232;28;20034;-67
2024/04/07 07:29:33;;;;;;;1.10;1.00;;;21.20;84.70;;;;;;4945214;28;20055;-67
2024/04/07 07:31:59;;;;;;;2.13;1.00;;;21.10;83.70;;;;;;4945117;28;20816;-67
2024/04/07 07:34:26;;;;;;;1.95;1.17;;;21.20;83.60;;;;;;4945453;28;20043;-67
2024/04/07 07:36:52;;;;;;;1.80;0.90;;;21.30;85.40;;;;;;4945730;28;20023;-67
2024/04/07 07:39:18;;;;;;;1.67;1.00;;;21.40;86.60;;;;;;4946732;28;20051;-67
2024/04/07 07:41:44;;;;;;;2.83;1.13;;;21.50;89.10;;;;;;4948483;28;20113;-67
2024/04/07 07:44:11;;;;;;;1.10;1.00;;;21.70;88.60;;;;;;4950960;28;20038;-67
2024/04/07 07:46:37;;;;;;;1.23;0.75;;;21.70;83.90;;;;;;4949745;28;20038;-67
2024/04/07 07:49:05;;;;;;;1.80;1.17;;;21.80;85.80;;;;;;4949569;28;20030;-68
2024/04/07 07:51:31;;;;;;;2.05;1.17;;;21.90;87.00;;;;;;4949031;28;20033;-67
2024/04/07 07:53:57;;;;;;;1.80;1.05;;;22.00;84.00;;;;;;4948966;28;20035;-67
2024/04/07 07:56:23;;;;;;;1.45;0.80;;;22.10;86.60;;;;;;4948980;28;20730;-67
2024/04/07 07:58:49;;;;;;;1.38;0.80;;;22.20;87.90;;;;;;4948024;28;20035;-67
2024/04/07 08:01:14;;;;;;;3.75;1.17;;;22.30;88.60;;;;;;4948931;28;20031;-69
2024/04/07 08:03:40;;;;;;;0.70;0.70;;;22.40;82.60;;;;;;4948504;28;20046;-68
2024/04/07 08:06:06;;;;;;;4.72;1.52;;;22.60;85.60;;;;;;4949233;28;20524;-67
2024/04/07 08:08:32;;;;;;;1.40;1.08;;;22.80;82.50;;;;;;4950116;28;20069;-67
2024/04/07 08:10:58;;;;;;;4.20;1.45;;;23.00;84.10;;;;;;4950115;28;20039;-67
2024/04/07 08:13:24;;;;;;;2.03;1.35;;;23.50;86.10;;;;;;4949146;28;20122;-67
2024/04/07 08:15:50;;;;;;;1.52;0.98;;;24.10;85.20;;;;;;4950471;28;20055;-67
2024/04/07 08:18:15;;;;;;;1.52;1.30;;;24.60;82.90;;;;;;4948825;28;20046;-67
2024/04/07 08:20:42;;;;;;;2.88;1.17;;;25.00;80.10;;;;;;4950067;28;20066;-67
2024/04/07 08:23:09;;;;;;;3.38;1.15;;;25.30;78.80;;;;;;4950194;28;20643;-67
2024/04/07 08:25:35;;;;;;;4.00;1.20;;;25.60;78.20;;;;;;4949144;28;20043;-67
2024/04/07 08:28:02;;;;;;;3.72;0.90;;;25.90;75.10;;;;;;4949360;28;20027;-67
2024/04/07 08:30:28;;;;;;;2.25;0.93;;;26.10;75.30;;;;;;4950210;28;20035;-67
2024/04/07 08:32:56;;;;;;;2.95;0.90;;;26.20;71.90;;;;;;4948703;28;20094;-68
2024/04/07 08:35:22;;;;;;;4.65;1.05;;;26.20;71.30;;;;;;4950265;28;20042;-67
2024/04/07 08:37:47;;;;;;;3.22;1.17;;;26.20;70.40;;;;;;4948677;28;20069;-67
2024/04/07 08:40:13;;;;;;;2.78;1.10;;;26.00;69.70;;;;;;4949212;28;20042;-68
2024/04/07 08:42:40;;;;;;;4.07;1.00;;;25.90;70.20;;;;;;4948666;28;20047;-67
2024/04/07 08:45:08;;;;;;;2.45;0.95;;;25.90;67.20;;;;;;4948401;28;20098;-67
2024/04/07 08:47:36;;;;;;;5.32;1.08;;;25.90;70.00;;;;;;4947869;28;20026;-68
2024/04/07 08:50:03;;;;;;;3.55;1.02;;;26.00;68.10;;;;;;4947904;28;20691;-67
2024/04/07 08:52:29;;;;;;;4.03;0.98;;;26.10;70.60;;;;;;4946762;28;20031;-68
2024/04/07 08:54:56;;;;;;;7.75;1.27;;;26.30;70.50;;;;;;4946289;28;20039;-67
2024/04/07 08:57:23;;;;;;;6.50;1.20;;;26.60;68.70;;;;;;4949109;28;20039;-64
2024/04/07 08:59:51;;;;;;;2.33;0.77;;;26.70;67.30;;;;;;4946213;28;20656;-67
2024/04/07 09:02:18;;;;;;;3.72;0.93;;;26.70;66.60;;;;;;4949077;28;20039;-67
2024/04/07 09:04:44;;;;;;;2.90;1.17;;;26.60;66.00;;;;;;4947024;28;20046;-67
2024/04/07 09:07:13;;;;;;;2.55;1.02;;;26.40;66.80;;;;;;4949206;28;20047;-67
2024/04/07 09:09:39;;;;;;;2.50;1.00;;;26.20;66.50;;;;;;4947975;28;20031;-67
2024/04/07 09:12:08;;;;;;;4.53;1.10;;;25.90;67.50;;;;;;4946539;28;20042;-68
2024/04/07 09:14:35;;;;;;;2.30;1.13;;;25.70;68.00;;;;;;4950097;28;20029;-67
2024/04/07 09:17:03;;;;;;;3.92;1.10;;;25.60;67.90;;;;;;4948075;28;20546;-67
2024/04/07 09:19:34;;;;;;;1.27;0.90;;;25.50;69.10;;;;;;4949461;28;20041;-67
2024/04/07 09:22:00;;;;;;;3.25;1.10;;;25.40;68.60;;;;;;4948184;28;20047;-67
2024/04/07 09:24:27;;;;;;;4.55;1.20;;;25.30;69.20;;;;;;4949037;28;20050;-67
2024/04/07 09:26:55;;;;;;;1.67;0.80;;;25.30;70.90;;;;;;4947891;28;20554;-67
2024/04/07 09:29:22;;;;;;;4.40;1.33;;;25.30;69.50;;;;;;4946675;28;20027;-67
2024/04/07 09:31:47;;;;;;;2.80;1.10;;;25.30;70.70;;;;;;4946777;28;20671;-67
2024/04/07 09:34:13;;;;;;;2.50;1.10;;;25.30;71.90;;;;;;4948734;28;20030;-67
2024/04/07 09:36:39;;;;;;;3.50;1.63;;;25.30;71.60;;;;;;4946850;28;20118;-67
2024/04/07 09:39:05;;;;;;;2.90;1.10;;;25.30;70.70;;;;;;4947868;28;20026;-67
2024/04/07 09:41:34;;;;;;;1.35;1.10;;;25.10;69.80;;;;;;4947743;28;20066;-67
2024/04/07 09:44:08;;;;;;;7.38;1.10;;;25.10;71.80;;;;;;4947053;28;20035;-67
2024/04/07 09:46:38;;;;;;;2.17;0.80;;;25.10;72.30;;;;;;4946549;28;20027;-67
2024/04/07 09:49:08;;;;;;;3.85;1.10;;;25.10;71.80;;;;;;4945947;28;20034;-67
2024/04/07 09:51:41;;;;;;;2.90;1.30;;;25.20;71.90;;;;;;4946239;28;20031;-67
2024/04/07 09:54:25;;;;;;;1.88;1.05;;;25.20;71.10;;;;;;4945566;28;20027;-67
2024/04/07 09:56:52;;;;;;;4.35;1.10;;;25.30;71.90;;;;;;4945521;28;20105;-67
2024/04/07 09:59:18;;;;;;;2.47;0.90;;;25.10;71.30;;;;;;4946215;28;20038;-67
2024/04/07 10:01:44;;;;;;;4.75;1.15;;;24.90;72.70;;;;;;4945136;28;20719;-64
2024/04/07 10:04:12;;;;;;;1.73;1.00;;;24.80;72.70;;;;;;4946587;28;20554;-64
2024/04/07 10:06:39;;;;;;;2.97;1.33;;;24.70;71.90;;;;;;4945686;28;20692;-65
2024/04/07 10:09:05;;;;;;;2.30;1.15;;;24.80;74.60;;;;;;4946917;28;20034;-64
2024/04/07 10:11:31;;;;;;;3.70;1.30;;;24.70;73.30;;;;;;4945742;28;20058;-64
2024/04/07 10:13:57;;;;;;;3.35;1.20;;;24.70;72.80;;;;;;4947158;28;20027;-64
2024/04/07 10:16:27;;;;;;;2.40;1.17;;;24.70;73.70;;;;;;4946916;28;20518;-64
2024/04/07 10:18:53;;;;;;;3.25;1.00;;;24.70;73.60;;;;;;4949022;28;20059;-64
2024/04/07 10:21:19;;;;;;;4.93;1.00;;;24.70;73.80;;;;;;4946645;28;20467;-64
2024/04/07 10:23:45;;;;;;;1.92;1.27;;;24.70;73.80;;;;;;4946609;28;20031;-64
2024/04/07 10:26:15;;;;;;;3.08;1.02;;;24.70;75.10;;;;;;4946014;28;20660;-64
2024/04/07 10:28:54;;;;;;;2.70;1.23;;;24.70;71.80;;;;;;4946791;28;20110;-64
2024/04/07 10:31:46;;;;;;;2.05;0.90;;;24.70;73.70;;;;;;4944397;28;20031;-64
2024/04/07 10:34:13;;;;;;;4.35;1.38;;;24.70;76.10;;;;;;4944139;28;20046;-64
2024/04/07 10:36:40;;;;;;;3.78;1.10;;;24.70;74.60;;;;;;4945110;28;20093;-64
2024/04/07 10:39:10;;;;;;;4.97;1.15;;;24.70;75.30;;;;;;4945644;28;20094;-64
2024/04/07 10:41:37;;;;;;;6.85;1.20;;;24.70;75.60;;;;;;4944331;28;20050;-64
2024/04/07 10:44:03;;;;;;;2.30;1.10;;;24.70;75.80;;;;;;4945893;28;20752;-64
2024/04/07 10:46:31;;;;;;;3.03;1.05;;;24.80;75.80;;;;;;4945569;28;20067;-64
2024/04/07 10:49:00;;;;;;;3.88;1.15;;;24.80;75.50;;;;;;4944897;28;20028;-64
2024/04/07 10:51:26;;;;;;;4.40;1.02;;;24.80;73.50;;;;;;4944209;28;20050;-64
2024/04/07 10:53:59;;;;;;;1.55;1.20;;;24.70;75.50;;;;;;4945719;28;20023;-64
2024/04/07 10:56:25;;;;;;;2.17;1.17;;;24.70;74.10;;;;;;4942520;28;20034;-64
2024/04/07 10:58:51;;;;;;;3.55;1.25;;;24.70;73.30;;;;;;4945888;28;20434;-64
2024/04/07 11:01:17;;;;;;;2.53;1.15;;;24.70;75.30;;;;;;4945632;28;20054;-64
2024/04/07 11:03:43;;;;;;;5.68;1.10;;;24.70;75.30;;;;;;4945198;28;20391;-64
2024/04/07 11:06:10;;;;;;;2.03;0.98;;;24.80;74.20;;;;;;4945224;28;20035;-64
2024/04/07 11:08:37;;;;;;;2.13;0.90;;;24.80;75.10;;;;;;4943066;28;20027;-64
2024/04/07 11:11:03;;;;;;;2.45;1.17;;;24.80;75.10;;;;;;4944728;28;20023;-64
2024/04/07 11:13:29;;;;;;;1.25;1.00;;;24.90;75.30;;;;;;4945733;28;20463;-64
2024/04/07 11:15:55;;;;;;;3.80;1.20;;;24.90;74.40;;;;;;4945012;28;20397;-64
2024/04/07 11:18:22;;;;;;;4.03;1.13;;;24.90;74.70;;;;;;4945536;28;20035;-64
2024/04/07 11:20:50;;;;;;;5.88;1.25;;;24.90;72.70;;;;;;4943653;28;20050;-64
2024/04/07 11:23:16;;;;;;;3.47;0.93;;;25.00;73.90;;;;;;4945628;28;20110;-64
2024/04/07 11:25:47;;;;;;;7.63;0.90;;;25.00;74.00;;;;;;4945195;28;20818;-64
2024/04/07 11:28:14;;;;;;;6.65;1.17;;;25.10;73.80;;;;;;4943918;28;20125;-64
2024/04/07 11:30:45;;;;;;;4.57;1.63;;;25.10;73.90;;;;;;4944637;28;20067;-64
2024/04/07 11:33:11;;;;;;;4.00;1.25;;;25.10;73.40;;;;;;4945003;28;20037;-64
2024/04/07 11:35:42;;;;;;;4.55;0.95;;;25.10;72.80;;;;;;4943284;28;20028;-64
2024/04/07 11:38:09;;;;;;;5.13;1.10;;;25.10;71.60;;;;;;4944404;28;20034;-64
2024/04/07 11:40:35;;;;;;;3.50;1.15;;;25.10;71.40;;;;;;4945114;28;20761;-64
2024/04/07 11:43:01;;;;;;;5.93;1.15;;;25.10;70.90;;;;;;4945432;28;20019;-64
2024/04/07 11:45:27;;;;;;;4.30;1.10;;;25.10;72.90;;;;;;4946016;28;20433;-65
2024/04/07 11:47:54;;;;;;;5.18;1.45;;;25.00;73.30;;;;;;4945252;28;20043;-65
2024/04/07 11:50:21;;;;;;;2.47;1.00;;;24.90;72.20;;;;;;4946469;28;20043;-64
2024/04/07 11:52:46;;;;;;;4.15;1.10;;;24.90;74.10;;;;;;4944248;28;20088;-64
2024/04/07 11:55:14;;;;;;;2.42;1.00;;;24.90;72.80;;;;;;4946648;28;20226;-65
2024/04/07 11:57:40;;;;;;;3.17;1.15;;;25.00;73.40;;;;;;4944577;28;20121;-64
2024/04/07 12:00:07;;;;;;;2.83;1.27;;;25.10;71.80;;;;;;4946746;28;20039;-64
2024/04/07 12:02:38;;;;;;;4.65;1.13;;;25.20;73.50;;;;;;4944461;28;20438;-64
2024/04/07 12:05:06;;;;;;;2.60;1.08;;;25.10;72.10;;;;;;4946941;28;20035;-64
2024/04/07 12:07:31;;;;;;;5.85;0.93;;;24.80;72.40;;;;;;4944939;28;20038;-64
2024/04/07 12:09:57;;;;;;;2.88;1.17;;;24.70;72.60;;;;;;4946768;28;20035;-64
2024/04/07 12:12:25;;;;;;;2.63;0.85;;;24.60;73.40;;;;;;4945957;28;20031;-64
2024/04/07 12:14:50;;;;;;;3.47;1.10;;;24.60;72.50;;;;;;4947173;28;20027;-64
2024/04/07 12:17:16;;;;;;;4.20;1.30;;;24.70;71.50;;;;;;4945392;28;20633;-64
2024/04/07 12:19:42;;;;;;;3.67;1.20;;;24.70;69.90;;;;;;4947055;28;20130;-64
2024/04/07 12:22:21;;;;;;;5.57;1.25;;;24.70;69.60;;;;;;4944057;28;20031;-64
2024/04/07 12:24:49;;;;;;;3.92;1.02;;;24.80;72.50;;;;;;4945993;28;20034;-64
2024/04/07 12:27:15;;;;;;;5.25;1.55;;;24.80;71.30;;;;;;4946263;28;20027;-64
2024/04/07 12:29:41;;;;;;;5.53;0.98;;;24.70;71.50;;;;;;4950157;28;20024;-64
2024/04/07 12:32:08;;;;;;;2.33;0.93;;;24.60;72.30;;;;;;4948592;28;20030;-64
2024/04/07 12:34:33;;;;;;;1.98;0.77;;;24.70;71.00;;;;;;4950716;28;20035;-64
2024/04/07 12:36:59;;;;;;;3.35;1.10;;;24.70;72.10;;;;;;4948719;28;20035;-64
2024/04/07 12:39:25;;;;;;;5.63;1.08;;;24.70;70.30;;;;;;4947892;28;20824;-64
2024/04/07 12:41:51;;;;;;;2.45;1.10;;;24.80;73.70;;;;;;4948721;28;20046;-64
2024/04/07 12:44:18;;;;;;;5.25;1.15;;;24.80;72.40;;;;;;4948094;28;20176;-64
2024/04/07 12:46:44;;;;;;;2.47;0.70;;;24.80;71.80;;;;;;4947945;28;20146;-64
2024/04/07 12:49:12;;;;;;;5.30;1.38;;;24.80;72.30;;;;;;4949704;28;20023;-64